sensor_id;sensor_type;location;lat;lon;timestamp;pressure;altitude;pressure_sealevel;temperature;humidity
45991;BME280;31721;41.740;-88.000;2022-07-18T00:00:02;98552.93;;;24.93;57.14
45991;BME280;31721;41.740;-88.000;2022-07-18T00:02:30;98556.54;;;25.01;57.05
45991;BME280;31721;41.740;-88.000;2022-07-18T00:04:57;98554.08;;;25.11;56.99
45991;BME280;31721;41.740;-88.000;2022-07-18T00:07:25;98556.59;;;25.12;56.99
45991;BME280;31721;41.740;-88.000;2022-07-18T00:09:52;98559.90;;;24.93;57.04
45991;BME280;31721;41.740;-88.000;2022-07-18T00:12:20;98565.12;;;24.95;57.12
45991;BME280;31721;41.740;-88.000;2022-07-18T00:14:48;98569.30;;;24.96;57.00
45991;BME280;31721;41.740;-88.000;2022-07-18T00:17:16;98570.79;;;24.91;56.94
45991;BME280;31721;41.740;-88.000;2022-07-18T00:19:43;98568.31;;;24.87;56.93
45991;BME280;31721;41.740;-88.000;2022-07-18T00:22:11;98571.45;;;24.79;56.95
45991;BME280;31721;41.740;-88.000;2022-07-18T00:24:39;98570.43;;;24.74;56.95
45991;BME280;31721;41.740;-88.000;2022-07-18T00:27:07;98569.01;;;24.74;56.87
45991;BME280;31721;41.740;-88.000;2022-07-18T00:29:35;98568.92;;;24.82;56.89
45991;BME280;31721;41.740;-88.000;2022-07-18T00:32:04;98572.55;;;24.72;56.76
45991;BME280;31721;41.740;-88.000;2022-07-18T00:34:32;98576.28;;;24.70;56.68
45991;BME280;31721;41.740;-88.000;2022-07-18T00:36:59;98574.62;;;24.66;56.55
45991;BME280;31721;41.740;-88.000;2022-07-18T00:39:27;98565.56;;;24.69;56.49
45991;BME280;31721;41.740;-88.000;2022-07-18T00:41:55;98559.52;;;24.67;56.65
45991;BME280;31721;41.740;-88.000;2022-07-18T00:44:24;98554.38;;;24.50;56.57
45991;BME280;31721;41.740;-88.000;2022-07-18T00:46:54;98551.12;;;24.22;56.75
45991;BME280;31721;41.740;-88.000;2022-07-18T00:49:22;98551.94;;;24.24;56.75
45991;BME280;31721;41.740;-88.000;2022-07-18T00:51:51;98549.11;;;24.15;56.80
45991;BME280;31721;41.740;-88.000;2022-07-18T00:54:20;98547.30;;;24.15;57.06
45991;BME280;31721;41.740;-88.000;2022-07-18T00:56:49;98541.97;;;23.88;57.14
45991;BME280;31721;41.740;-88.000;2022-07-18T00:59:17;98540.68;;;23.91;57.25
45991;BME280;31721;41.740;-88.000;2022-07-18T01:01:45;98538.62;;;23.99;57.37
45991;BME280;31721;41.740;-88.000;2022-07-18T01:04:16;98539.44;;;23.93;57.24
45991;BME280;31721;41.740;-88.000;2022-07-18T01:06:45;98539.51;;;23.93;57.42
45991;BME280;31721;41.740;-88.000;2022-07-18T01:09:13;98536.52;;;23.81;57.36
45991;BME280;31721;41.740;-88.000;2022-07-18T01:11:40;98541.20;;;23.95;57.39
45991;BME280;31721;41.740;-88.000;2022-07-18T01:14:08;98543.80;;;23.98;57.33
45991;BME280;31721;41.740;-88.000;2022-07-18T01:16:36;98545.08;;;24.01;57.24
45991;BME280;31721;41.740;-88.000;2022-07-18T01:19:03;98543.29;;;23.99;57.17
45991;BME280;31721;41.740;-88.000;2022-07-18T01:21:32;98541.55;;;23.96;57.14
45991;BME280;31721;41.740;-88.000;2022-07-18T01:24:00;98540.96;;;23.91;57.17
45991;BME280;31721;41.740;-88.000;2022-07-18T01:26:28;98542.24;;;23.97;57.18
45991;BME280;31721;41.740;-88.000;2022-07-18T01:28:55;98544.26;;;23.83;57.21
45991;BME280;31721;41.740;-88.000;2022-07-18T01:31:29;98541.42;;;23.76;57.26
45991;BME280;31721;41.740;-88.000;2022-07-18T01:33:57;98542.72;;;23.75;57.29
45991;BME280;31721;41.740;-88.000;2022-07-18T01:36:25;98544.56;;;23.60;57.28
45991;BME280;31721;41.740;-88.000;2022-07-18T01:38:52;98543.67;;;23.60;57.31
45991;BME280;31721;41.740;-88.000;2022-07-18T01:41:20;98541.78;;;23.55;57.35
45991;BME280;31721;41.740;-88.000;2022-07-18T01:43:47;98541.43;;;23.70;57.34
45991;BME280;31721;41.740;-88.000;2022-07-18T01:46:15;98545.01;;;23.67;57.43
45991;BME280;31721;41.740;-88.000;2022-07-18T01:48:42;98547.07;;;23.62;57.44
45991;BME280;31721;41.740;-88.000;2022-07-18T01:51:10;98552.82;;;23.63;57.37
45991;BME280;31721;41.740;-88.000;2022-07-18T01:53:38;98554.84;;;23.64;57.44
45991;BME280;31721;41.740;-88.000;2022-07-18T01:56:07;98558.80;;;23.64;57.41
45991;BME280;31721;41.740;-88.000;2022-07-18T01:58:35;98567.42;;;23.51;57.28
45991;BME280;31721;41.740;-88.000;2022-07-18T02:01:02;98569.71;;;23.34;57.59
45991;BME280;31721;41.740;-88.000;2022-07-18T02:03:30;98571.50;;;23.34;57.54
45991;BME280;31721;41.740;-88.000;2022-07-18T02:05:57;98572.18;;;23.31;57.61
45991;BME280;31721;41.740;-88.000;2022-07-18T02:08:25;98574.18;;;23.23;57.72
45991;BME280;31721;41.740;-88.000;2022-07-18T02:10:52;98576.57;;;23.44;57.57
45991;BME280;31721;41.740;-88.000;2022-07-18T02:13:19;98578.16;;;23.27;57.59
45991;BME280;31721;41.740;-88.000;2022-07-18T02:15:47;98579.42;;;23.27;57.69
45991;BME280;31721;41.740;-88.000;2022-07-18T02:18:15;98578.39;;;23.39;57.74
45991;BME280;31721;41.740;-88.000;2022-07-18T02:20:43;98580.65;;;23.36;57.70
45991;BME280;31721;41.740;-88.000;2022-07-18T02:23:11;98581.92;;;23.44;57.63
45991;BME280;31721;41.740;-88.000;2022-07-18T02:25:38;98579.30;;;23.40;57.50
45991;BME280;31721;41.740;-88.000;2022-07-18T02:28:06;98579.80;;;23.22;57.51
45991;BME280;31721;41.740;-88.000;2022-07-18T02:30:34;98581.51;;;23.49;57.50
45991;BME280;31721;41.740;-88.000;2022-07-18T02:33:02;98579.24;;;23.24;57.51
45991;BME280;31721;41.740;-88.000;2022-07-18T02:35:30;98574.35;;;23.32;57.53
45991;BME280;31721;41.740;-88.000;2022-07-18T02:37:57;98570.34;;;23.38;57.59
45991;BME280;31721;41.740;-88.000;2022-07-18T02:40:25;98571.63;;;23.36;57.56
45991;BME280;31721;41.740;-88.000;2022-07-18T02:42:53;98574.41;;;23.60;57.45
45991;BME280;31721;41.740;-88.000;2022-07-18T02:45:21;98579.69;;;23.46;57.28
45991;BME280;31721;41.740;-88.000;2022-07-18T02:47:49;98579.35;;;23.29;57.33
45991;BME280;31721;41.740;-88.000;2022-07-18T02:50:17;98580.75;;;23.27;57.28
45991;BME280;31721;41.740;-88.000;2022-07-18T02:52:45;98581.65;;;23.27;57.28
45991;BME280;31721;41.740;-88.000;2022-07-18T02:55:14;98582.47;;;23.18;57.19
45991;BME280;31721;41.740;-88.000;2022-07-18T02:57:42;98576.87;;;23.13;57.31
45991;BME280;31721;41.740;-88.000;2022-07-18T03:00:13;98575.74;;;23.15;57.50
45991;BME280;31721;41.740;-88.000;2022-07-18T03:02:41;98575.03;;;23.04;57.42
45991;BME280;31721;41.740;-88.000;2022-07-18T03:05:10;98571.95;;;22.85;57.53
45991;BME280;31721;41.740;-88.000;2022-07-18T03:07:38;98573.62;;;22.99;57.54
45991;BME280;31721;41.740;-88.000;2022-07-18T03:10:07;98573.33;;;22.94;57.54
45991;BME280;31721;41.740;-88.000;2022-07-18T03:12:35;98572.00;;;23.07;57.32
45991;BME280;31721;41.740;-88.000;2022-07-18T03:15:03;98569.88;;;22.98;57.31
45991;BME280;31721;41.740;-88.000;2022-07-18T03:17:30;98567.08;;;22.83;57.48
45991;BME280;31721;41.740;-88.000;2022-07-18T03:19:58;98564.01;;;22.84;57.47
45991;BME280;31721;41.740;-88.000;2022-07-18T03:22:25;98564.09;;;23.05;57.39
45991;BME280;31721;41.740;-88.000;2022-07-18T03:24:53;98565.94;;;22.88;57.26
45991;BME280;31721;41.740;-88.000;2022-07-18T03:27:21;98570.43;;;22.82;57.40
45991;BME280;31721;41.740;-88.000;2022-07-18T03:29:48;98576.53;;;22.67;57.39
45991;BME280;31721;41.740;-88.000;2022-07-18T03:32:16;98579.45;;;22.75;57.56
45991;BME280;31721;41.740;-88.000;2022-07-18T03:34:44;98581.27;;;22.63;57.48
45991;BME280;31721;41.740;-88.000;2022-07-18T03:37:12;98585.42;;;22.68;57.47
45991;BME280;31721;41.740;-88.000;2022-07-18T03:39:39;98590.13;;;22.61;57.54
45991;BME280;31721;41.740;-88.000;2022-07-18T03:42:06;98593.59;;;22.52;57.61
45991;BME280;31721;41.740;-88.000;2022-07-18T03:44:34;98598.27;;;22.49;57.64
45991;BME280;31721;41.740;-88.000;2022-07-18T03:47:02;98600.46;;;22.50;57.59
45991;BME280;31721;41.740;-88.000;2022-07-18T03:49:30;98599.98;;;22.51;57.75
45991;BME280;31721;41.740;-88.000;2022-07-18T03:51:57;98600.58;;;22.56;57.84
45991;BME280;31721;41.740;-88.000;2022-07-18T03:54:25;98602.21;;;22.52;58.05
45991;BME280;31721;41.740;-88.000;2022-07-18T03:56:52;98603.56;;;22.66;57.80
45991;BME280;31721;41.740;-88.000;2022-07-18T03:59:19;98607.60;;;22.69;58.01
45991;BME280;31721;41.740;-88.000;2022-07-18T04:01:47;98605.83;;;22.80;58.06
45991;BME280;31721;41.740;-88.000;2022-07-18T04:04:15;98605.63;;;22.70;58.09
45991;BME280;31721;41.740;-88.000;2022-07-18T04:06:42;98605.90;;;22.67;58.06
45991;BME280;31721;41.740;-88.000;2022-07-18T04:09:10;98606.31;;;22.67;58.13
45991;BME280;31721;41.740;-88.000;2022-07-18T04:11:37;98611.29;;;22.68;58.18
45991;BME280;31721;41.740;-88.000;2022-07-18T04:14:05;98612.41;;;22.65;58.18
45991;BME280;31721;41.740;-88.000;2022-07-18T04:16:33;98613.38;;;22.66;58.28
45991;BME280;31721;41.740;-88.000;2022-07-18T04:19:00;98613.72;;;22.64;58.31
45991;BME280;31721;41.740;-88.000;2022-07-18T04:21:28;98613.34;;;22.65;58.51
45991;BME280;31721;41.740;-88.000;2022-07-18T04:23:55;98609.00;;;22.56;58.49
45991;BME280;31721;41.740;-88.000;2022-07-18T04:26:23;98607.20;;;22.62;58.66
45991;BME280;31721;41.740;-88.000;2022-07-18T04:28:50;98606.21;;;22.67;58.69
45991;BME280;31721;41.740;-88.000;2022-07-18T04:31:18;98602.74;;;22.68;58.62
45991;BME280;31721;41.740;-88.000;2022-07-18T04:33:46;98603.82;;;22.68;58.53
45991;BME280;31721;41.740;-88.000;2022-07-18T04:36:13;98607.89;;;22.84;58.61
45991;BME280;31721;41.740;-88.000;2022-07-18T04:38:41;98607.53;;;22.74;58.39
45991;BME280;31721;41.740;-88.000;2022-07-18T04:41:08;98610.08;;;22.66;58.31
45991;BME280;31721;41.740;-88.000;2022-07-18T04:43:35;98610.45;;;22.66;58.39
45991;BME280;31721;41.740;-88.000;2022-07-18T04:46:03;98610.54;;;22.64;58.38
45991;BME280;31721;41.740;-88.000;2022-07-18T04:48:31;98609.05;;;22.62;58.41
45991;BME280;31721;41.740;-88.000;2022-07-18T04:50:58;98606.31;;;22.79;58.51
45991;BME280;31721;41.740;-88.000;2022-07-18T04:53:26;98602.10;;;22.63;58.45
45991;BME280;31721;41.740;-88.000;2022-07-18T04:55:54;98598.31;;;22.64;58.48
45991;BME280;31721;41.740;-88.000;2022-07-18T04:58:22;98594.90;;;22.65;58.42
45991;BME280;31721;41.740;-88.000;2022-07-18T05:00:50;98595.66;;;22.59;58.37
45991;BME280;31721;41.740;-88.000;2022-07-18T05:03:17;98597.66;;;22.67;58.23
45991;BME280;31721;41.740;-88.000;2022-07-18T05:05:45;98597.94;;;22.77;58.24
45991;BME280;31721;41.740;-88.000;2022-07-18T05:08:13;98600.48;;;22.69;58.32
45991;BME280;31721;41.740;-88.000;2022-07-18T05:10:40;98601.97;;;22.74;58.25
45991;BME280;31721;41.740;-88.000;2022-07-18T05:13:08;98601.00;;;22.65;58.30
45991;BME280;31721;41.740;-88.000;2022-07-18T05:15:35;98600.65;;;22.64;58.28
45991;BME280;31721;41.740;-88.000;2022-07-18T05:18:03;98599.01;;;22.64;58.43
45991;BME280;31721;41.740;-88.000;2022-07-18T05:20:31;98598.83;;;22.65;58.33
45991;BME280;31721;41.740;-88.000;2022-07-18T05:22:59;98596.29;;;22.64;58.42
45991;BME280;31721;41.740;-88.000;2022-07-18T05:25:26;98596.62;;;22.66;58.42
45991;BME280;31721;41.740;-88.000;2022-07-18T05:27:54;98595.16;;;22.64;58.37
45991;BME280;31721;41.740;-88.000;2022-07-18T05:30:22;98595.82;;;22.68;58.32
45991;BME280;31721;41.740;-88.000;2022-07-18T05:32:50;98596.35;;;22.70;58.38
45991;BME280;31721;41.740;-88.000;2022-07-18T05:35:17;98591.96;;;22.90;58.15
45991;BME280;31721;41.740;-88.000;2022-07-18T05:37:45;98595.77;;;22.82;58.11
45991;BME280;31721;41.740;-88.000;2022-07-18T05:40:13;98594.12;;;22.76;58.03
45991;BME280;31721;41.740;-88.000;2022-07-18T05:42:41;98591.32;;;22.76;57.93
45991;BME280;31721;41.740;-88.000;2022-07-18T05:45:10;98587.21;;;22.83;57.94
45991;BME280;31721;41.740;-88.000;2022-07-18T05:47:38;98586.80;;;22.79;57.99
45991;BME280;31721;41.740;-88.000;2022-07-18T05:50:06;98583.08;;;22.72;58.21
45991;BME280;31721;41.740;-88.000;2022-07-18T05:52:35;98574.86;;;22.71;58.11
45991;BME280;31721;41.740;-88.000;2022-07-18T05:55:04;98572.54;;;22.68;58.18
45991;BME280;31721;41.740;-88.000;2022-07-18T05:57:33;98568.85;;;22.77;58.28
45991;BME280;31721;41.740;-88.000;2022-07-18T06:00:00;98571.00;;;22.69;58.36
45991;BME280;31721;41.740;-88.000;2022-07-18T06:02:28;98571.34;;;22.84;58.19
45991;BME280;31721;41.740;-88.000;2022-07-18T06:04:56;98571.44;;;22.77;57.96
45991;BME280;31721;41.740;-88.000;2022-07-18T06:07:24;98574.17;;;22.81;58.06
45991;BME280;31721;41.740;-88.000;2022-07-18T06:09:52;98575.61;;;22.88;58.15
45991;BME280;31721;41.740;-88.000;2022-07-18T06:12:20;98574.96;;;22.69;58.08
45991;BME280;31721;41.740;-88.000;2022-07-18T06:14:48;98575.00;;;22.72;58.21
45991;BME280;31721;41.740;-88.000;2022-07-18T06:17:16;98573.51;;;22.84;58.26
45991;BME280;31721;41.740;-88.000;2022-07-18T06:19:43;98576.06;;;22.68;58.27
45991;BME280;31721;41.740;-88.000;2022-07-18T06:22:11;98575.00;;;22.64;58.31
45991;BME280;31721;41.740;-88.000;2022-07-18T06:24:39;98575.03;;;22.67;58.35
45991;BME280;31721;41.740;-88.000;2022-07-18T06:27:07;98574.07;;;22.59;58.49
45991;BME280;31721;41.740;-88.000;2022-07-18T06:29:34;98571.30;;;22.66;58.63
45991;BME280;31721;41.740;-88.000;2022-07-18T06:32:02;98571.12;;;22.43;58.62
45991;BME280;31721;41.740;-88.000;2022-07-18T06:34:33;98574.46;;;22.42;58.85
45991;BME280;31721;41.740;-88.000;2022-07-18T06:37:00;98575.69;;;22.46;59.03
45991;BME280;31721;41.740;-88.000;2022-07-18T06:39:28;98572.80;;;22.40;59.28
45991;BME280;31721;41.740;-88.000;2022-07-18T06:41:56;98569.39;;;22.23;59.63
45991;BME280;31721;41.740;-88.000;2022-07-18T06:44:23;98565.20;;;22.18;59.75
45991;BME280;31721;41.740;-88.000;2022-07-18T06:46:51;98566.81;;;22.16;59.87
45991;BME280;31721;41.740;-88.000;2022-07-18T06:49:19;98567.05;;;22.19;60.01
45991;BME280;31721;41.740;-88.000;2022-07-18T06:51:47;98568.49;;;22.22;59.78
45991;BME280;31721;41.740;-88.000;2022-07-18T06:54:14;98567.78;;;22.32;59.69
45991;BME280;31721;41.740;-88.000;2022-07-18T06:56:42;98566.68;;;22.26;59.76
45991;BME280;31721;41.740;-88.000;2022-07-18T06:59:10;98564.53;;;22.29;59.71
45991;BME280;31721;41.740;-88.000;2022-07-18T07:01:38;98561.83;;;22.42;59.87
45991;BME280;31721;41.740;-88.000;2022-07-18T07:04:05;98560.49;;;22.37;59.77
45991;BME280;31721;41.740;-88.000;2022-07-18T07:06:33;98558.57;;;22.37;59.62
45991;BME280;31721;41.740;-88.000;2022-07-18T07:09:01;98560.42;;;22.49;59.71
45991;BME280;31721;41.740;-88.000;2022-07-18T07:11:29;98567.43;;;22.47;59.67
45991;BME280;31721;41.740;-88.000;2022-07-18T07:13:56;98570.27;;;22.49;59.73
45991;BME280;31721;41.740;-88.000;2022-07-18T07:16:24;98570.03;;;22.56;59.72
45991;BME280;31721;41.740;-88.000;2022-07-18T07:18:52;98570.06;;;22.53;59.76
45991;BME280;31721;41.740;-88.000;2022-07-18T07:21:19;98575.21;;;22.60;59.60
45991;BME280;31721;41.740;-88.000;2022-07-18T07:23:47;98574.44;;;22.44;59.64
45991;BME280;31721;41.740;-88.000;2022-07-18T07:26:15;98571.34;;;22.43;59.52
45991;BME280;31721;41.740;-88.000;2022-07-18T07:28:43;98576.23;;;22.46;59.39
45991;BME280;31721;41.740;-88.000;2022-07-18T07:31:11;98578.07;;;22.31;59.53
45991;BME280;31721;41.740;-88.000;2022-07-18T07:33:39;98580.26;;;22.35;59.55
45991;BME280;31721;41.740;-88.000;2022-07-18T07:36:06;98579.86;;;22.38;59.62
45991;BME280;31721;41.740;-88.000;2022-07-18T07:38:34;98580.69;;;22.31;59.75
45991;BME280;31721;41.740;-88.000;2022-07-18T07:41:02;98579.74;;;22.44;59.89
45991;BME280;31721;41.740;-88.000;2022-07-18T07:43:30;98578.40;;;22.45;59.84
45991;BME280;31721;41.740;-88.000;2022-07-18T07:45:58;98580.81;;;22.47;59.62
45991;BME280;31721;41.740;-88.000;2022-07-18T07:48:25;98580.32;;;22.55;59.57
45991;BME280;31721;41.740;-88.000;2022-07-18T07:50:53;98583.14;;;22.42;59.56
45991;BME280;31721;41.740;-88.000;2022-07-18T07:53:21;98584.72;;;22.41;59.64
45991;BME280;31721;41.740;-88.000;2022-07-18T07:55:49;98582.57;;;22.37;59.83
45991;BME280;31721;41.740;-88.000;2022-07-18T07:58:16;98584.17;;;22.33;59.83
45991;BME280;31721;41.740;-88.000;2022-07-18T08:00:43;98587.21;;;22.27;59.97
45991;BME280;31721;41.740;-88.000;2022-07-18T08:03:11;98591.57;;;22.29;59.98
45991;BME280;31721;41.740;-88.000;2022-07-18T08:05:45;98592.43;;;22.41;59.95
45991;BME280;31721;41.740;-88.000;2022-07-18T08:08:14;98592.76;;;22.41;59.81
45991;BME280;31721;41.740;-88.000;2022-07-18T08:10:42;98593.73;;;22.37;59.84
45991;BME280;31721;41.740;-88.000;2022-07-18T08:13:10;98592.47;;;22.35;59.86
45991;BME280;31721;41.740;-88.000;2022-07-18T08:15:38;98586.81;;;22.41;59.93
45991;BME280;31721;41.740;-88.000;2022-07-18T08:18:05;98583.56;;;22.21;59.79
45991;BME280;31721;41.740;-88.000;2022-07-18T08:20:33;98584.38;;;22.31;59.70
45991;BME280;31721;41.740;-88.000;2022-07-18T08:23:03;98590.12;;;22.21;59.84
45991;BME280;31721;41.740;-88.000;2022-07-18T08:25:36;98601.95;;;22.01;59.86
45991;BME280;31721;41.740;-88.000;2022-07-18T08:28:05;98605.60;;;22.02;59.95
45991;BME280;31721;41.740;-88.000;2022-07-18T08:30:34;98606.20;;;22.03;60.12
45991;BME280;31721;41.740;-88.000;2022-07-18T08:33:03;98604.94;;;21.97;60.09
45991;BME280;31721;41.740;-88.000;2022-07-18T08:35:31;98609.15;;;21.98;60.00
45991;BME280;31721;41.740;-88.000;2022-07-18T08:37:59;98608.78;;;21.83;60.06
45991;BME280;31721;41.740;-88.000;2022-07-18T08:40:27;98612.48;;;21.84;60.22
45991;BME280;31721;41.740;-88.000;2022-07-18T08:42:56;98618.24;;;21.75;60.30
45991;BME280;31721;41.740;-88.000;2022-07-18T08:45:24;98623.48;;;21.76;60.31
45991;BME280;31721;41.740;-88.000;2022-07-18T08:47:52;98628.13;;;21.52;60.37
45991;BME280;31721;41.740;-88.000;2022-07-18T08:50:21;98624.74;;;21.64;60.49
45991;BME280;31721;41.740;-88.000;2022-07-18T08:52:49;98625.86;;;21.62;60.45
45991;BME280;31721;41.740;-88.000;2022-07-18T08:55:17;98630.23;;;21.57;60.57
45991;BME280;31721;41.740;-88.000;2022-07-18T08:57:44;98636.39;;;21.47;60.60
45991;BME280;31721;41.740;-88.000;2022-07-18T09:00:13;98641.33;;;21.57;60.56
45991;BME280;31721;41.740;-88.000;2022-07-18T09:02:40;98640.21;;;21.60;60.44
45991;BME280;31721;41.740;-88.000;2022-07-18T09:05:17;98637.56;;;21.60;60.23
45991;BME280;31721;41.740;-88.000;2022-07-18T09:07:46;98643.96;;;21.61;60.33
45991;BME280;31721;41.740;-88.000;2022-07-18T09:10:15;98648.91;;;21.61;60.14
45991;BME280;31721;41.740;-88.000;2022-07-18T09:12:56;98653.67;;;21.71;60.19
45991;BME280;31721;41.740;-88.000;2022-07-18T09:15:24;98655.50;;;21.64;60.06
45991;BME280;31721;41.740;-88.000;2022-07-18T09:17:56;98650.65;;;21.64;59.99
45991;BME280;31721;41.740;-88.000;2022-07-18T09:20:24;98645.21;;;21.84;59.95
45991;BME280;31721;41.740;-88.000;2022-07-18T09:22:51;98641.48;;;21.71;59.88
45991;BME280;31721;41.740;-88.000;2022-07-18T09:25:21;98639.82;;;21.69;59.86
45991;BME280;31721;41.740;-88.000;2022-07-18T09:27:51;98645.82;;;21.63;59.94
45991;BME280;31721;41.740;-88.000;2022-07-18T09:30:23;98651.12;;;21.72;59.84
45991;BME280;31721;41.740;-88.000;2022-07-18T09:32:53;98650.51;;;21.73;59.77
45991;BME280;31721;41.740;-88.000;2022-07-18T09:35:24;98648.35;;;21.71;59.71
45991;BME280;31721;41.740;-88.000;2022-07-18T09:37:59;98651.58;;;21.73;59.83
45991;BME280;31721;41.740;-88.000;2022-07-18T09:40:30;98658.54;;;21.73;59.69
45991;BME280;31721;41.740;-88.000;2022-07-18T09:43:00;98664.42;;;21.72;59.67
45991;BME280;31721;41.740;-88.000;2022-07-18T09:45:30;98666.81;;;21.68;59.69
45991;BME280;31721;41.740;-88.000;2022-07-18T09:47:59;98668.09;;;21.69;59.95
45991;BME280;31721;41.740;-88.000;2022-07-18T09:50:30;98672.28;;;21.69;60.01
45991;BME280;31721;41.740;-88.000;2022-07-18T09:53:11;98680.90;;;21.69;60.03
45991;BME280;31721;41.740;-88.000;2022-07-18T09:55:48;98684.85;;;21.64;60.03
45991;BME280;31721;41.740;-88.000;2022-07-18T09:58:18;98690.74;;;21.64;59.99
45991;BME280;31721;41.740;-88.000;2022-07-18T10:00:46;98696.62;;;21.76;59.86
45991;BME280;31721;41.740;-88.000;2022-07-18T10:03:15;98696.70;;;21.85;59.63
45991;BME280;31721;41.740;-88.000;2022-07-18T10:05:45;98694.37;;;21.88;59.45
45991;BME280;31721;41.740;-88.000;2022-07-18T10:08:15;98695.31;;;21.91;59.34
45991;BME280;31721;41.740;-88.000;2022-07-18T10:10:44;98692.99;;;21.98;59.24
45991;BME280;31721;41.740;-88.000;2022-07-18T10:13:14;98690.70;;;21.87;59.23
45991;BME280;31721;41.740;-88.000;2022-07-18T10:15:43;98681.14;;;21.77;59.22
45991;BME280;31721;41.740;-88.000;2022-07-18T10:18:13;98673.26;;;21.84;59.46
45991;BME280;31721;41.740;-88.000;2022-07-18T10:20:43;98674.57;;;21.81;59.40
45991;BME280;31721;41.740;-88.000;2022-07-18T10:23:17;98681.53;;;21.75;59.43
45991;BME280;31721;41.740;-88.000;2022-07-18T10:25:44;98686.23;;;21.80;59.57
45991;BME280;31721;41.740;-88.000;2022-07-18T10:28:31;98681.06;;;21.81;59.58
45991;BME280;31721;41.740;-88.000;2022-07-18T10:31:13;98676.42;;;21.82;59.60
45991;BME280;31721;41.740;-88.000;2022-07-18T10:33:42;98680.18;;;21.77;59.39
45991;BME280;31721;41.740;-88.000;2022-07-18T10:36:12;98679.70;;;21.79;59.28
45991;BME280;31721;41.740;-88.000;2022-07-18T10:39:03;98675.22;;;21.74;59.29
45991;BME280;31721;41.740;-88.000;2022-07-18T10:41:32;98676.45;;;21.63;59.32
45991;BME280;31721;41.740;-88.000;2022-07-18T10:43:59;98676.04;;;21.61;59.59
45991;BME280;31721;41.740;-88.000;2022-07-18T10:47:04;98675.56;;;21.58;59.60
45991;BME280;31721;41.740;-88.000;2022-07-18T10:50:21;98669.75;;;21.48;59.64
45991;BME280;31721;41.740;-88.000;2022-07-18T10:52:57;98676.23;;;21.52;59.71
45991;BME280;31721;41.740;-88.000;2022-07-18T10:55:28;98681.93;;;21.53;59.60
45991;BME280;31721;41.740;-88.000;2022-07-18T10:58:28;98683.95;;;21.58;59.48
45991;BME280;31721;41.740;-88.000;2022-07-18T11:01:07;98683.44;;;21.54;59.45
45991;BME280;31721;41.740;-88.000;2022-07-18T11:03:40;98678.17;;;21.50;59.51
45991;BME280;31721;41.740;-88.000;2022-07-18T11:06:08;98673.91;;;21.47;59.46
45991;BME280;31721;41.740;-88.000;2022-07-18T11:08:36;98671.65;;;21.46;59.60
45991;BME280;31721;41.740;-88.000;2022-07-18T11:11:09;98668.19;;;21.40;59.57
45991;BME280;31721;41.740;-88.000;2022-07-18T11:13:39;98666.12;;;21.33;59.74
45991;BME280;31721;41.740;-88.000;2022-07-18T11:16:10;98672.91;;;21.34;59.76
45991;BME280;31721;41.740;-88.000;2022-07-18T11:19:19;98676.07;;;21.36;59.79
45991;BME280;31721;41.740;-88.000;2022-07-18T11:21:57;98685.56;;;21.36;59.73
45991;BME280;31721;41.740;-88.000;2022-07-18T11:24:26;98692.03;;;21.31;59.88
45991;BME280;31721;41.740;-88.000;2022-07-18T11:26:54;98693.16;;;21.41;59.96
45991;BME280;31721;41.740;-88.000;2022-07-18T11:29:22;98692.97;;;21.42;59.87
45991;BME280;31721;41.740;-88.000;2022-07-18T11:31:51;98694.25;;;21.43;59.90
45991;BME280;31721;41.740;-88.000;2022-07-18T11:34:20;98694.67;;;21.41;59.85
45991;BME280;31721;41.740;-88.000;2022-07-18T11:36:48;98693.11;;;21.30;59.98
45991;BME280;31721;41.740;-88.000;2022-07-18T11:39:28;98695.09;;;21.28;60.09
45991;BME280;31721;41.740;-88.000;2022-07-18T11:41:57;98700.60;;;21.24;60.10
45991;BME280;31721;41.740;-88.000;2022-07-18T11:44:24;98701.42;;;21.27;60.34
45991;BME280;31721;41.740;-88.000;2022-07-18T11:47:01;98709.47;;;21.29;60.13
45991;BME280;31721;41.740;-88.000;2022-07-18T11:49:29;98715.14;;;21.30;60.15
45991;BME280;31721;41.740;-88.000;2022-07-18T11:51:57;98718.00;;;21.49;60.10
45991;BME280;31721;41.740;-88.000;2022-07-18T11:54:25;98716.07;;;21.36;60.06
45991;BME280;31721;41.740;-88.000;2022-07-18T11:56:54;98720.14;;;21.46;59.99
45991;BME280;31721;41.740;-88.000;2022-07-18T11:59:23;98727.40;;;21.48;59.77
45991;BME280;31721;41.740;-88.000;2022-07-18T12:02:01;98731.24;;;21.51;59.76
45991;BME280;31721;41.740;-88.000;2022-07-18T12:04:30;98731.39;;;21.56;59.70
45991;BME280;31721;41.740;-88.000;2022-07-18T12:07:16;98734.41;;;21.50;59.67
45991;BME280;31721;41.740;-88.000;2022-07-18T12:09:45;98741.16;;;21.49;59.80
45991;BME280;31721;41.740;-88.000;2022-07-18T12:12:14;98739.26;;;21.48;59.71
45991;BME280;31721;41.740;-88.000;2022-07-18T12:14:41;98736.97;;;21.48;59.92
45991;BME280;31721;41.740;-88.000;2022-07-18T12:17:09;98737.73;;;21.59;59.99
45991;BME280;31721;41.740;-88.000;2022-07-18T12:19:38;98744.51;;;21.51;60.02
45991;BME280;31721;41.740;-88.000;2022-07-18T12:22:08;98748.63;;;21.57;59.94
45991;BME280;31721;41.740;-88.000;2022-07-18T12:24:38;98750.26;;;21.75;59.88
45991;BME280;31721;41.740;-88.000;2022-07-18T12:27:22;98752.50;;;21.57;59.85
45991;BME280;31721;41.740;-88.000;2022-07-18T12:29:56;98751.60;;;21.82;59.70
45991;BME280;31721;41.740;-88.000;2022-07-18T12:32:25;98753.65;;;21.78;59.55
45991;BME280;31721;41.740;-88.000;2022-07-18T12:34:56;98753.96;;;21.77;59.37
45991;BME280;31721;41.740;-88.000;2022-07-18T12:37:26;98759.74;;;21.84;58.98
45991;BME280;31721;41.740;-88.000;2022-07-18T12:39:56;98760.95;;;22.05;58.77
45991;BME280;31721;41.740;-88.000;2022-07-18T12:42:29;98768.76;;;22.14;58.64
45991;BME280;31721;41.740;-88.000;2022-07-18T12:44:58;98764.63;;;22.23;58.16
45991;BME280;31721;41.740;-88.000;2022-07-18T12:47:26;98760.63;;;22.39;57.89
45991;BME280;31721;41.740;-88.000;2022-07-18T12:49:54;98769.17;;;22.38;57.53